Time;durP1;ratioP1;P1;durP2;ratioP2;P2;SDS_P1;SDS_P2;PMS_P1;PMS_P2;Temp;Humidity;BMP_temperature;BMP_pressure;BME280_temperature;BME280_humidity;BME280_pressure;Samples;Min_cycle;Max_cycle;Signal;HPM_P1;HPM_P2
2022/12/09 00:00:00;;;;;;;1.63;1.00;;;;;;;9.61;100.00;95417.38;5075247;28;20429;-55
2022/12/09 00:02:29;;;;;;;1.87;1.00;;;;;;;9.85;100.00;95415.03;5074870;28;20455;-55
2022/12/09 00:04:58;;;;;;;1.83;0.83;;;;;;;9.94;100.00;95413.47;5074724;28;20567;-55
2022/12/09 00:07:27;;;;;;;0.80;0.80;;;;;;;9.64;100.00;95419.47;5074851;28;20436;-55
2022/12/09 00:09:55;;;;;;;3.50;2.40;;;;;;;9.59;100.00;95411.53;5074550;28;20524;-55
2022/12/09 00:12:25;;;;;;;0.53;0.50;;;;;;;9.64;100.00;95418.69;5075084;28;20455;-56
2022/12/09 00:14:53;;;;;;;1.83;1.70;;;;;;;9.92;100.00;95426.97;5074750;28;20515;-55
2022/12/09 00:17:21;;;;;;;2.20;2.10;;;;;;;9.63;100.00;95432.97;5075086;28;20421;-56
2022/12/09 00:19:50;;;;;;;2.30;2.20;;;;;;;9.82;100.00;95426.13;5074706;28;20498;-56
2022/12/09 00:22:18;;;;;;;1.07;1.07;;;;;;;9.78;100.00;95430.38;5074724;28;20422;-56
2022/12/09 00:24:46;;;;;;;0.93;0.93;;;;;;;9.81;100.00;95420.06;5074601;28;20465;-55
2022/12/09 00:27:15;;;;;;;0.57;0.57;;;;;;;9.82;100.00;95416.34;5074573;28;20438;-56
2022/12/09 00:29:45;;;;;;;1.47;0.83;;;;;;;9.52;100.00;95366.00;5074785;28;20442;-55
2022/12/09 00:32:13;;;;;;;3.50;0.53;;;;;;;9.90;100.00;95428.28;5074159;28;20967;-56
2022/12/09 00:34:42;;;;;;;0.77;0.77;;;;;;;9.94;100.00;95432.00;5074664;28;20506;-56
2022/12/09 00:37:10;;;;;;;0.93;0.70;;;;;;;9.94;100.00;95432.78;5074508;28;20429;-56
2022/12/09 00:39:39;;;;;;;0.50;0.50;;;;;;;10.00;100.00;95436.25;5074327;28;20460;-55
2022/12/09 00:42:07;;;;;;;0.50;0.40;;;;;;;9.96;100.00;95425.41;5074264;28;20427;-55
2022/12/09 00:44:35;;;;;;;0.40;0.30;;;;;;;9.87;100.00;95424.31;5074089;28;20438;-55
2022/12/09 00:47:05;;;;;;;3.43;0.40;;;;;;;9.94;100.00;95437.31;5074104;28;20792;-55
2022/12/09 00:49:34;;;;;;;0.67;0.57;;;;;;;10.00;100.00;95429.09;5073292;28;20482;-56
2022/12/09 00:52:02;;;;;;;0.33;0.33;;;;;;;9.91;100.00;95429.88;5074343;28;20424;-55
2022/12/09 00:54:31;;;;;;;0.50;0.40;;;;;;;9.72;100.00;95437.50;5074108;28;20470;-55
2022/12/09 00:56:59;;;;;;;0.40;0.30;;;;;;;9.76;100.00;95438.59;5074293;28;20537;-55
2022/12/09 00:59:28;;;;;;;0.50;0.40;;;;;;;9.65;100.00;95431.66;5073962;28;20425;-56
2022/12/09 01:01:58;;;;;;;1.30;1.13;;;;;;;9.86;100.00;95429.88;5074247;28;20419;-55
2022/12/09 01:04:28;;;;;;;1.00;1.00;;;;;;;9.56;100.00;95435.88;5074430;28;20846;-55
2022/12/09 01:06:57;;;;;;;0.63;0.60;;;;;;;9.26;100.00;95433.13;5074066;28;20894;-55
2022/12/09 01:09:25;;;;;;;0.40;0.37;;;;;;;9.08;100.00;95433.53;5073761;28;20461;-55
2022/12/09 01:11:54;;;;;;;0.40;0.30;;;;;;;9.25;100.00;95434.94;5073521;28;20432;-55
2022/12/09 01:14:22;;;;;;;1.73;0.73;;;;;;;9.44;100.00;95430.78;5073493;28;20423;-56
2022/12/09 01:16:51;;;;;;;0.43;0.43;;;;;;;9.45;100.00;95429.75;5073656;28;20909;-56
2022/12/09 01:19:19;;;;;;;0.30;0.30;;;;;;;9.38;100.00;95436.34;5073859;28;20421;-56
2022/12/09 01:21:53;;;;;;;0.70;0.70;;;;;;;9.57;100.00;95443.53;5073855;28;20430;-56
2022/12/09 01:24:22;;;;;;;0.40;0.30;;;;;;;9.74;100.00;95443.31;5073451;28;20432;-56
2022/12/09 01:26:50;;;;;;;3.63;1.20;;;;;;;9.38;100.00;95439.78;5073318;28;20470;-56
2022/12/09 01:29:18;;;;;;;1.90;0.30;;;;;;;9.59;100.00;95435.34;5073444;28;20519;-55
2022/12/09 01:31:47;;;;;;;0.80;0.60;;;;;;;9.59;100.00;95432.69;5073538;28;20441;-56
2022/12/09 01:34:15;;;;;;;1.67;1.57;;;;;;;9.77;100.00;95428.78;5073551;28;20428;-56
2022/12/09 01:36:44;;;;;;;0.40;0.40;;;;;;;9.89;100.00;95432.78;5073196;28;20423;-56
2022/12/09 01:39:15;;;;;;;6.10;0.50;;;;;;;10.00;100.00;95430.94;5073160;28;20426;-55
2022/12/09 01:41:44;;;;;;;0.30;0.20;;;;;;;9.87;100.00;95437.53;5073350;28;20465;-55
2022/12/09 01:44:17;;;;;;;0.30;0.30;;;;;;;9.89;100.00;95424.06;5073404;28;20417;-56
2022/12/09 01:46:46;;;;;;;0.60;0.50;;;;;;;9.96;100.00;95448.44;5071882;28;20476;-56
2022/12/09 01:49:19;;;;;;;0.50;0.50;;;;;;;9.81;100.00;95446.53;5072959;28;20432;-56
2022/12/09 01:51:54;;;;;;;0.73;0.73;;;;;;;9.78;100.00;95435.66;5073023;28;20453;-55
2022/12/09 01:54:25;;;;;;;0.50;0.30;;;;;;;9.68;100.00;95436.44;5071296;28;20553;-56
2022/12/09 01:56:54;;;;;;;0.60;0.60;;;;;;;9.45;100.00;95427.09;5072072;28;20430;-55
2022/12/09 01:59:24;;;;;;;1.33;0.80;;;;;;;9.54;100.00;95440.63;5072978;28;20437;-55
2022/12/09 02:01:58;;;;;;;0.40;0.33;;;;;;;9.84;100.00;95442.56;5071945;28;20428;-56
2022/12/09 02:04:29;;;;;;;0.50;0.50;;;;;;;9.99;100.00;95424.84;5072687;28;20511;-55
2022/12/09 02:07:02;;;;;;;0.50;0.43;;;;;;;9.85;100.00;95420.31;5072544;28;20481;-55
2022/12/09 02:09:32;;;;;;;0.47;0.47;;;;;;;9.68;100.00;95417.13;5072599;28;20436;-56
2022/12/09 02:12:12;;;;;;;6.70;0.63;;;;;;;9.95;100.00;95405.25;5072801;28;20438;-56
2022/12/09 02:14:42;;;;;;;0.40;0.30;;;;;;;9.96;100.00;95409.50;5073033;28;20440;-55
2022/12/09 02:17:25;;;;;;;0.47;0.43;;;;;;;9.99;100.00;95406.31;5072361;28;20432;-55
2022/12/09 02:20:01;;;;;;;0.40;0.30;;;;;;;10.22;100.00;95409.56;5072317;28;20846;-55
2022/12/09 02:22:34;;;;;;;0.40;0.30;;;;;;;10.29;100.00;95415.41;5072298;28;21009;-55
2022/12/09 02:25:19;;;;;;;0.50;0.43;;;;;;;10.33;100.00;95408.50;5072231;28;20427;-55
2022/12/09 02:27:57;;;;;;;0.40;0.40;;;;;;;10.29;100.00;95412.75;5072484;28;20484;-55
2022/12/09 02:30:33;;;;;;;1.00;0.90;;;;;;;10.12;100.00;95419.06;5072470;28;20428;-55
2022/12/09 02:33:17;;;;;;;0.40;0.40;;;;;;;9.92;100.00;95423.50;5072130;28;20466;-56
2022/12/09 02:35:52;;;;;;;1.27;1.17;;;;;;;9.75;100.00;95437.00;5072014;28;20427;-55
2022/12/09 02:38:25;;;;;;;1.33;1.33;;;;;;;9.88;100.00;95411.88;5072008;28;20433;-55
2022/12/09 02:40:59;;;;;;;0.43;0.43;;;;;;;9.73;100.00;95431.16;5072314;28;20524;-55
2022/12/09 02:43:31;;;;;;;0.90;0.60;;;;;;;9.69;100.00;95448.59;5071930;28;20434;-55
2022/12/09 02:46:01;;;;;;;2.40;2.30;;;;;;;9.66;100.00;95443.06;5072159;28;20482;-55
2022/12/09 02:48:34;;;;;;;2.63;2.30;;;;;;;9.51;100.00;95441.94;5072170;28;20424;-55
2022/12/09 02:51:07;;;;;;;0.70;0.70;;;;;;;9.40;100.00;95445.59;5071809;28;20500;-55
2022/12/09 02:53:38;;;;;;;1.40;0.97;;;;;;;9.27;100.00;95455.84;5071974;28;20475;-55
2022/12/09 02:56:08;;;;;;;1.10;0.97;;;;;;;9.39;100.00;95448.47;5072196;28;20420;-55
2022/12/09 02:58:36;;;;;;;0.67;0.67;;;;;;;9.75;100.00;95441.47;5072175;28;20490;-55
2022/12/09 03:01:05;;;;;;;0.50;0.50;;;;;;;9.97;100.00;95453.44;5072029;28;20435;-55
2022/12/09 03:03:34;;;;;;;0.60;0.60;;;;;;;9.93;100.00;95454.25;5072112;28;20448;-55
2022/12/09 03:06:08;;;;;;;0.40;0.40;;;;;;;9.97;100.00;95450.00;5071933;28;20864;-55
2022/12/09 03:08:44;;;;;;;0.87;0.87;;;;;;;9.76;100.00;95453.66;5072050;28;20493;-55
2022/12/09 03:11:15;;;;;;;0.60;0.60;;;;;;;9.42;100.00;95448.78;5071472;28;20522;-55
2022/12/09 03:13:51;;;;;;;3.90;1.53;;;;;;;9.74;100.00;95459.19;5071512;28;20434;-55
2022/12/09 03:16:26;;;;;;;4.40;2.00;;;;;;;9.83;100.00;95454.22;5071902;28;20750;-54
2022/12/09 03:19:00;;;;;;;4.53;4.20;;;;;;;9.70;100.00;95447.56;5071578;28;20519;-54
2022/12/09 03:21:32;;;;;;;0.60;0.57;;;;;;;9.58;100.00;95460.22;5071186;28;20420;-55
2022/12/09 03:24:02;;;;;;;1.53;1.17;;;;;;;9.44;100.00;95461.75;5071588;28;20934;-55
2022/12/09 03:26:33;;;;;;;1.27;1.17;;;;;;;9.39;100.00;95465.16;5071627;28;20900;-55
2022/12/09 03:29:06;;;;;;;0.40;0.30;;;;;;;9.63;100.00;95464.72;5071739;28;20480;-55
2022/12/09 03:31:37;;;;;;;0.50;0.40;;;;;;;9.66;100.00;95470.31;5071728;28;20768;-55
2022/12/09 03:34:09;;;;;;;1.00;1.00;;;;;;;9.48;100.00;95465.47;5071584;28;20921;-55
2022/12/09 03:36:41;;;;;;;1.87;1.43;;;;;;;9.62;100.00;95474.50;5070629;28;20951;-55
2022/12/09 03:39:14;;;;;;;0.63;0.63;;;;;;;9.94;100.00;95479.66;5071300;28;20779;-55
2022/12/09 03:41:45;;;;;;;0.50;0.50;;;;;;;9.99;100.00;95475.16;5071185;28;20432;-55
2022/12/09 03:44:19;;;;;;;0.57;0.50;;;;;;;9.73;100.00;95470.06;5071315;28;20424;-56
2022/12/09 03:46:48;;;;;;;5.83;0.67;;;;;;;9.76;100.00;95475.63;5071159;28;20554;-55
2022/12/09 03:49:17;;;;;;;0.77;0.77;;;;;;;9.62;100.00;95457.84;5071290;28;20460;-55
2022/12/09 03:51:50;;;;;;;0.90;0.90;;;;;;;9.87;100.00;95476.44;5071288;28;20822;-55
2022/12/09 03:54:24;;;;;;;1.07;0.93;;;;;;;10.03;100.00;95475.44;5071063;28;20484;-55
2022/12/09 03:56:56;;;;;;;0.50;0.50;;;;;;;10.13;100.00;95470.19;5071233;28;20429;-55
2022/12/09 03:59:30;;;;;;;0.80;0.73;;;;;;;9.92;100.00;95466.66;5070745;28;20785;-55
2022/12/09 04:01:59;;;;;;;2.33;2.10;;;;;;;10.03;100.00;95465.66;5071182;28;20438;-56
2022/12/09 04:04:28;;;;;;;2.00;0.97;;;;;;;10.06;100.00;95473.06;5071456;28;20428;-55
2022/12/09 04:06:58;;;;;;;0.60;0.60;;;;;;;9.41;100.00;95374.97;5071061;28;20471;-55
2022/12/09 04:09:26;;;;;;;0.40;0.30;;;;;;;10.01;100.00;95482.84;5071134;28;20463;-55
2022/12/09 04:11:55;;;;;;;1.47;0.43;;;;;;;9.88;100.00;95484.16;5071439;28;20442;-56
2022/12/09 04:14:23;;;;;;;1.13;1.13;;;;;;;9.53;100.00;95481.38;5071048;28;20435;-55
2022/12/09 04:16:52;;;;;;;0.73;0.73;;;;;;;9.74;100.00;95477.72;5070921;28;20913;-56
2022/12/09 04:19:21;;;;;;;2.83;0.87;;;;;;;9.79;100.00;95485.69;5071012;28;20450;-55
2022/12/09 04:21:49;;;;;;;3.00;2.00;;;;;;;9.55;100.00;95485.34;5070636;28;20490;-56
2022/12/09 04:24:19;;;;;;;1.57;1.47;;;;;;;9.59;100.00;95489.06;5070650;28;20437;-55
2022/12/09 04:26:47;;;;;;;3.00;0.90;;;;;;;9.71;100.00;95486.22;5074780;28;20479;-55
2022/12/09 04:29:16;;;;;;;9.23;2.47;;;;;;;9.64;100.00;95487.50;5073719;28;20498;-55
2022/12/09 04:31:44;;;;;;;3.30;1.90;;;;;;;9.70;100.00;95489.09;5074409;28;20423;-55
2022/12/09 04:34:13;;;;;;;2.17;0.70;;;;;;;9.94;100.00;95487.63;5073884;28;20427;-55
2022/12/09 04:36:41;;;;;;;2.10;2.00;;;;;;;9.66;100.00;95486.19;5074512;28;20438;-55
2022/12/09 04:39:10;;;;;;;0.60;0.60;;;;;;;9.69;100.00;95480.34;5074154;28;20441;-55
2022/12/09 04:41:39;;;;;;;17.77;1.30;;;;;;;9.71;100.00;95470.34;5073912;28;20825;-56
2022/12/09 04:44:08;;;;;;;2.03;1.93;;;;;;;9.51;100.00;95472.91;5073565;28;20432;-55
2022/12/09 04:46:36;;;;;;;1.40;1.30;;;;;;;9.51;100.00;95483.47;5074348;28;20433;-56
2022/12/09 04:49:05;;;;;;;1.30;1.23;;;;;;;9.42;100.00;95503.53;5073994;28;20455;-55
2022/12/09 04:51:33;;;;;;;1.07;1.07;;;;;;;9.14;100.00;95504.69;5074010;28;20471;-54
2022/12/09 04:54:07;;;;;;;2.83;2.60;;;;;;;9.02;100.00;95503.28;5073855;28;20477;-55
2022/12/09 04:56:36;;;;;;;3.00;2.77;;;;;;;9.39;100.00;95506.69;5073656;28;20940;-55
2022/12/09 04:59:06;;;;;;;3.07;2.17;;;;;;;9.30;100.00;95497.66;5073859;28;20486;-55
2022/12/09 05:01:34;;;;;;;1.53;1.43;;;;;;;9.13;100.00;95499.69;5073656;28;20435;-56
2022/12/09 05:04:03;;;;;;;2.83;2.73;;;;;;;9.04;100.00;95498.53;5073128;28;20430;-55
2022/12/09 05:06:32;;;;;;;2.50;2.30;;;;;;;9.15;100.00;95500.22;5073951;28;20841;-54
2022/12/09 05:09:02;;;;;;;0.93;0.93;;;;;;;9.24;100.00;95496.03;5072500;28;20560;-54
2022/12/09 05:11:31;;;;;;;1.20;0.67;;;;;;;9.47;100.00;95488.47;5073570;28;20434;-55
2022/12/09 05:13:59;;;;;;;3.47;0.50;;;;;;;9.80;100.00;95497.06;5072899;28;20781;-55
2022/12/09 05:16:29;;;;;;;1.50;1.50;;;;;;;9.84;100.00;95493.66;5073800;28;20477;-55
2022/12/09 05:18:59;;;;;;;1.13;1.03;;;;;;;9.41;100.00;95412.00;5073667;28;20439;-55
2022/12/09 05:21:28;;;;;;;1.23;1.23;;;;;;;9.51;100.00;95499.34;5072923;28;20447;-55
2022/12/09 05:23:57;;;;;;;4.83;0.60;;;;;;;9.39;100.00;95502.19;5073348;28;20440;-55
2022/12/09 05:26:26;;;;;;;6.47;2.13;;;;;;;9.27;100.00;95495.50;5073203;28;20436;-55
2022/12/09 05:28:54;;;;;;;1.60;1.40;;;;;;;9.20;100.00;95498.41;5073356;28;20480;-55
2022/12/09 05:31:23;;;;;;;1.73;0.90;;;;;;;9.22;100.00;95482.25;5072934;28;20455;-55
2022/12/09 05:33:53;;;;;;;0.70;0.70;;;;;;;9.43;100.00;95498.00;5073083;28;20443;-56
2022/12/09 05:36:24;;;;;;;1.10;0.80;;;;;;;8.91;100.00;95376.34;5072717;28;20434;-55
2022/12/09 05:38:53;;;;;;;0.87;0.87;;;;;;;9.71;100.00;95493.34;5073274;28;20859;-56
2022/12/09 05:41:22;;;;;;;2.30;0.80;;;;;;;9.75;100.00;95495.22;5072769;28;20425;-56
2022/12/09 05:43:52;;;;;;;0.87;0.40;;;;;;;9.94;100.00;95485.72;5072613;28;20443;-55
2022/12/09 05:46:21;;;;;;;3.37;1.13;;;;;;;9.54;100.00;95494.31;5072720;28;20453;-55
2022/12/09 05:48:50;;;;;;;1.30;1.23;;;;;;;9.76;100.00;95494.16;5072772;28;20471;-55
2022/12/09 05:51:23;;;;;;;1.70;1.60;;;;;;;9.07;100.00;95418.72;5072778;28;20796;-55
2022/12/09 05:53:53;;;;;;;0.90;0.90;;;;;;;9.74;100.00;95495.47;5072781;28;21225;-55
2022/12/09 05:56:23;;;;;;;11.23;1.10;;;;;;;9.87;100.00;95503.72;5072519;28;20952;-55
2022/12/09 05:58:53;;;;;;;1.40;1.40;;;;;;;9.90;100.00;95511.16;5072663;28;20811;-55
2022/12/09 06:01:22;;;;;;;1.53;1.43;;;;;;;9.91;100.00;95512.75;5072528;28;20435;-55
2022/12/09 06:03:53;;;;;;;0.77;0.77;;;;;;;9.83;100.00;95515.09;5072308;28;20429;-56
2022/12/09 06:06:26;;;;;;;1.57;1.47;;;;;;;9.67;100.00;95521.38;5072481;28;20917;-55
2022/12/09 06:08:57;;;;;;;0.97;0.97;;;;;;;9.74;100.00;95514.00;5072369;28;20463;-55
2022/12/09 06:11:27;;;;;;;1.47;1.37;;;;;;;9.04;100.00;95395.44;5072401;28;20463;-56
2022/12/09 06:13:56;;;;;;;1.70;1.70;;;;;;;9.92;100.00;95526.75;5071678;28;20511;-56
2022/12/09 06:16:24;;;;;;;1.73;0.90;;;;;;;9.95;100.00;95529.69;5072253;28;20442;-56
2022/12/09 06:18:54;;;;;;;0.50;0.50;;;;;;;9.75;100.00;95515.59;5072264;28;20456;-56
2022/12/09 06:21:24;;;;;;;2.53;2.43;;;;;;;9.87;100.00;95529.38;5072249;28;20420;-56
2022/12/09 06:23:53;;;;;;;1.73;1.57;;;;;;;9.63;100.00;95533.53;5072564;28;20834;-56
2022/12/09 06:26:24;;;;;;;0.90;0.77;;;;;;;9.22;100.00;95469.84;5071852;28;20429;-56
2022/12/09 06:28:53;;;;;;;1.47;1.37;;;;;;;9.74;100.00;95533.31;5072055;28;20559;-55
2022/12/09 06:31:22;;;;;;;0.80;0.60;;;;;;;9.87;100.00;95532.84;5071377;28;20440;-55
2022/12/09 06:33:51;;;;;;;0.77;0.77;;;;;;;9.94;100.00;95533.38;5072113;28;20432;-55
2022/12/09 06:36:25;;;;;;;0.50;0.50;;;;;;;10.12;100.00;95529.50;5072021;28;20520;-55
2022/12/09 06:38:55;;;;;;;2.67;0.60;;;;;;;10.06;100.00;95534.00;5072255;28;20885;-55
2022/12/09 06:41:24;;;;;;;1.47;1.37;;;;;;;10.08;100.00;95536.38;5071956;28;20425;-55
2022/12/09 06:43:53;;;;;;;9.47;3.90;;;;;;;10.10;100.00;95539.53;5071546;28;20434;-55
2022/12/09 06:46:23;;;;;;;3.10;3.00;;;;;;;9.86;100.00;95533.91;5072135;28;20429;-55
2022/12/09 06:48:53;;;;;;;1.80;1.70;;;;;;;10.02;100.00;95532.09;5071573;28;20481;-55
2022/12/09 06:51:25;;;;;;;1.93;1.93;;;;;;;9.63;100.00;95534.34;5072399;28;20861;-55
2022/12/09 06:53:54;;;;;;;4.30;2.13;;;;;;;9.22;100.00;95521.94;5071319;28;20468;-55
2022/12/09 06:56:23;;;;;;;3.13;3.03;;;;;;;9.11;100.00;95541.44;5071973;28;20528;-56
2022/12/09 06:58:52;;;;;;;1.90;1.80;;;;;;;9.21;100.00;95544.94;5071807;28;20428;-54
2022/12/09 07:01:24;;;;;;;0.83;0.83;;;;;;;9.00;100.00;95561.72;5071669;28;20437;-55
2022/12/09 07:03:55;;;;;;;3.13;3.03;;;;;;;9.07;100.00;95556.19;5071672;28;20427;-55
2022/12/09 07:06:29;;;;;;;2.50;2.40;;;;;;;9.30;100.00;95556.63;5071666;28;20422;-54
2022/12/09 07:09:01;;;;;;;0.83;0.70;;;;;;;9.56;100.00;95552.31;5071501;28;20564;-55
2022/12/09 07:11:30;;;;;;;1.43;1.33;;;;;;;9.46;100.00;95560.19;5071528;28;20429;-55
2022/12/09 07:13:59;;;;;;;0.80;0.80;;;;;;;9.82;100.00;95558.50;5071834;28;20423;-55
2022/12/09 07:16:28;;;;;;;0.83;0.83;;;;;;;9.93;100.00;95560.94;5071588;28;20508;-55
2022/12/09 07:18:57;;;;;;;0.73;0.53;;;;;;;10.30;100.00;95549.41;5071545;28;20431;-55
2022/12/09 07:21:28;;;;;;;0.70;0.70;;;;;;;10.48;100.00;95549.72;5071876;28;20427;-55
2022/12/09 07:23:59;;;;;;;0.73;0.73;;;;;;;10.31;100.00;95546.53;5071889;28;20483;-55
2022/12/09 07:26:30;;;;;;;1.10;1.00;;;;;;;10.25;100.00;95541.47;5071586;28;20431;-55
2022/12/09 07:29:01;;;;;;;3.80;1.77;;;;;;;10.25;100.00;95552.06;5071118;28;20562;-55
2022/12/09 07:31:31;;;;;;;1.63;1.53;;;;;;;10.02;100.00;95547.97;5071843;28;20802;-55
2022/12/09 07:34:00;;;;;;;5.37;1.43;;;;;;;10.18;100.00;95553.13;5071460;28;20874;-54
2022/12/09 07:36:31;;;;;;;0.83;0.83;;;;;;;10.28;100.00;95552.34;5071755;28;20437;-55
2022/12/09 07:39:01;;;;;;;0.50;0.50;;;;;;;10.27;100.00;95549.97;5071407;28;20432;-55
2022/12/09 07:41:33;;;;;;;6.47;2.23;;;;;;;10.29;100.00;95553.16;5071396;28;20498;-54
2022/12/09 07:44:02;;;;;;;5.03;4.03;;;;;;;10.16;100.00;95552.59;5071301;28;20440;-54
2022/12/09 07:46:31;;;;;;;0.93;0.80;;;;;;;10.18;100.00;95569.00;5071564;28;20801;-54
2022/12/09 07:49:02;;;;;;;3.57;3.27;;;;;;;9.82;100.00;95551.34;5071426;28;20530;-54
2022/12/09 07:51:32;;;;;;;5.93;2.23;;;;;;;10.19;100.00;95553.91;5071031;28;20525;-54
2022/12/09 07:54:01;;;;;;;2.63;1.30;;;;;;;9.96;100.00;95539.25;5071228;28;20534;-55
2022/12/09 07:56:29;;;;;;;1.47;1.37;;;;;;;10.44;100.00;95563.78;5071375;28;20494;-54
2022/12/09 07:58:58;;;;;;;1.33;1.33;;;;;;;10.55;100.00;95557.44;5072314;28;20994;-55
2022/12/09 08:01:29;;;;;;;1.40;1.30;;;;;;;10.76;100.00;95554.56;5073891;28;20448;-54
2022/12/09 08:03:59;;;;;;;0.93;0.93;;;;;;;10.85;100.00;95546.88;5074903;28;20508;-53
2022/12/09 08:06:30;;;;;;;0.37;0.30;;;;;;;11.18;100.00;95558.81;5074369;28;20449;-53
2022/12/09 08:09:02;;;;;;;1.33;1.20;;;;;;;11.07;100.00;95538.63;5074676;28;20468;-54
2022/12/09 08:11:32;;;;;;;1.77;0.93;;;;;;;10.90;100.00;95543.44;5074908;28;20464;-54
2022/12/09 08:14:03;;;;;;;1.03;0.93;;;;;;;11.03;100.00;95543.66;5074812;28;20428;-55
2022/12/09 08:16:39;;;;;;;5.40;1.80;;;;;;;10.91;100.00;95550.31;5074796;28;20508;-54
2022/12/09 08:19:09;;;;;;;2.30;2.07;;;;;;;10.91;100.00;95545.81;5074951;28;20476;-54
2022/12/09 08:21:38;;;;;;;1.60;1.50;;;;;;;10.76;100.00;95548.44;5075000;28;20444;-54
2022/12/09 08:24:10;;;;;;;4.20;3.57;;;;;;;10.95;100.00;95552.19;5074878;28;20440;-54
2022/12/09 08:26:39;;;;;;;6.43;3.20;;;;;;;10.57;100.00;95539.44;5074905;28;20424;-54
2022/12/09 08:29:09;;;;;;;7.70;2.93;;;;;;;10.11;100.00;95547.25;5074518;28;20472;-54
2022/12/09 08:31:40;;;;;;;4.60;2.60;;;;;;;10.18;100.00;95547.81;5074463;28;20441;-54
2022/12/09 08:34:09;;;;;;;2.30;2.20;;;;;;;10.17;100.00;95545.41;5074431;28;20435;-55
2022/12/09 08:36:39;;;;;;;1.80;1.70;;;;;;;10.40;100.00;95536.22;5074746;28;20723;-55
2022/12/09 08:39:09;;;;;;;0.93;0.57;;;;;;;10.37;100.00;95539.41;5074332;28;20435;-55
2022/12/09 08:41:39;;;;;;;3.47;1.77;;;;;;;10.68;100.00;95539.16;5074616;28;20445;-55
2022/12/09 08:44:10;;;;;;;2.30;2.20;;;;;;;10.85;100.00;95537.03;5074256;28;20429;-55
2022/12/09 08:46:41;;;;;;;1.27;1.27;;;;;;;11.20;100.00;95556.66;5074159;28;20468;-55
2022/12/09 08:49:11;;;;;;;5.47;3.13;;;;;;;10.98;100.00;95541.03;5074079;28;21149;-55
2022/12/09 08:51:40;;;;;;;2.30;2.20;;;;;;;11.26;100.00;95542.31;5074073;28;20434;-55
2022/12/09 08:54:10;;;;;;;1.63;1.53;;;;;;;11.13;100.00;95542.88;5073129;28;20508;-55
2022/12/09 08:56:39;;;;;;;1.43;1.43;;;;;;;10.92;100.00;95536.78;5073835;28;20491;-53
2022/12/09 08:59:07;;;;;;;1.50;1.40;;;;;;;10.97;100.00;95538.66;5073652;28;20435;-54
2022/12/09 09:01:36;;;;;;;2.53;2.43;;;;;;;11.10;100.00;95536.25;5074168;28;20494;-55
2022/12/09 09:04:06;;;;;;;1.83;1.73;;;;;;;11.02;100.00;95534.13;5073926;28;20483;-54
2022/12/09 09:06:37;;;;;;;17.37;1.10;;;;;;;11.34;100.00;95549.75;5073774;28;20491;-54
2022/12/09 09:09:07;;;;;;;0.50;0.50;;;;;;;11.54;100.00;95530.31;5073631;28;20433;-54
2022/12/09 09:11:38;;;;;;;0.93;0.83;;;;;;;11.36;100.00;95532.50;5073063;28;20846;-54
2022/12/09 09:14:09;;;;;;;2.50;0.70;;;;;;;11.48;100.00;95533.00;5073725;28;20428;-54
2022/12/09 09:16:39;;;;;;;2.43;1.00;;;;;;;11.42;100.00;95517.38;5073655;28;20496;-54
2022/12/09 09:19:12;;;;;;;0.87;0.87;;;;;;;11.31;100.00;95515.78;5073646;28;20525;-54
2022/12/09 09:21:41;;;;;;;0.47;0.40;;;;;;;11.58;100.00;95513.63;5073361;28;20521;-54
2022/12/09 09:24:11;;;;;;;3.20;1.10;;;;;;;11.68;100.00;95500.34;5073887;28;20822;-54
2022/12/09 09:26:42;;;;;;;0.40;0.30;;;;;;;11.41;100.00;95511.25;5073396;28;20439;-55
2022/12/09 09:29:12;;;;;;;1.40;1.30;;;;;;;10.99;100.00;95510.00;5073203;28;20459;-55
2022/12/09 09:31:40;;;;;;;1.47;1.47;;;;;;;11.13;100.00;95508.41;5073160;28;20429;-55
2022/12/09 09:34:10;;;;;;;0.60;0.60;;;;;;;11.19;100.00;95515.28;5073235;28;20433;-55
2022/12/09 09:36:40;;;;;;;0.67;0.67;;;;;;;11.25;100.00;95517.66;5073141;28;20432;-55
2022/12/09 09:39:09;;;;;;;0.87;0.87;;;;;;;10.90;100.00;95516.91;5073134;28;20417;-55
2022/12/09 09:41:51;;;;;;;1.93;1.30;;;;;;;10.82;100.00;95510.28;5073278;28;20520;-55
2022/12/09 09:44:25;;;;;;;1.53;1.43;;;;;;;11.00;100.00;95522.22;5072961;28;20925;-55
2022/12/09 09:46:55;;;;;;;1.60;1.53;;;;;;;10.89;100.00;95510.81;5073151;28;21004;-55
2022/12/09 09:49:31;;;;;;;1.10;1.10;;;;;;;10.90;100.00;95504.44;5072801;28;20428;-55
2022/12/09 09:52:05;;;;;;;2.30;1.27;;;;;;;11.07;100.00;95499.66;5072061;28;20438;-55
2022/12/09 09:54:34;;;;;;;0.50;0.50;;;;;;;11.10;100.00;95480.56;5072666;28;20475;-55
2022/12/09 09:57:13;;;;;;;0.50;0.40;;;;;;;11.11;100.00;95474.16;5072968;28;20500;-55
2022/12/09 09:59:55;;;;;;;1.87;1.70;;;;;;;11.32;100.00;95485.53;5072969;28;20776;-54
2022/12/09 10:02:46;;;;;;;0.60;0.60;;;;;;;11.58;100.00;95476.44;5072524;28;20430;-54
2022/12/09 10:05:22;;;;;;;0.60;0.50;;;;;;;11.61;100.00;95475.09;5072374;28;20883;-54
2022/12/09 10:07:54;;;;;;;2.20;1.23;;;;;;;11.28;100.00;95471.22;5072317;28;20517;-54
2022/12/09 10:10:38;;;;;;;2.83;1.63;;;;;;;11.25;100.00;95461.94;5072160;28;20474;-54
2022/12/09 10:13:21;;;;;;;2.40;2.20;;;;;;;10.59;100.00;95363.19;5072258;28;21029;-54
2022/12/09 10:15:59;;;;;;;2.23;1.80;;;;;;;11.45;100.00;95475.16;5072206;28;20969;-53
2022/12/09 10:18:32;;;;;;;1.20;1.10;;;;;;;11.08;100.00;95420.88;5072205;28;20512;-54
2022/12/09 10:21:00;;;;;;;2.73;2.63;;;;;;;11.05;100.00;95451.38;5072064;28;20989;-54
2022/12/09 10:23:31;;;;;;;17.03;2.40;;;;;;;11.07;100.00;95441.31;5071090;28;20870;-54
2022/12/09 10:26:05;;;;;;;3.83;1.33;;;;;;;11.40;100.00;95447.84;5072067;28;20489;-54
2022/12/09 10:28:41;;;;;;;1.07;1.07;;;;;;;11.48;100.00;95448.06;5072090;28;20511;-54
2022/12/09 10:31:11;;;;;;;7.37;2.13;;;;;;;11.30;100.00;95445.22;5071842;28;20473;-54
2022/12/09 10:33:40;;;;;;;0.97;0.77;;;;;;;11.65;100.00;95439.78;5071966;28;20586;-54
2022/12/09 10:36:22;;;;;;;2.60;2.40;;;;;;;11.79;100.00;95434.72;5071899;28;20899;-54
2022/12/09 10:38:53;;;;;;;1.93;1.83;;;;;;;11.69;100.00;95424.13;5072084;28;20504;-54
2022/12/09 10:44:24;;;;;;;1.90;1.80;;;;;;;12.19;100.00;95415.88;5072071;28;20457;-54
2022/12/09 10:47:02;;;;;;;1.80;1.70;;;;;;;12.28;100.00;95403.56;5072092;28;20832;-54
2022/12/09 10:49:31;;;;;;;1.90;1.80;;;;;;;12.36;100.00;95402.97;5071658;28;20450;-51
2022/12/09 10:52:03;;;;;;;11.73;3.47;;;;;;;12.64;100.00;95396.91;5071633;28;20532;-53
2022/12/09 10:54:38;;;;;;;3.23;3.13;;;;;;;12.29;100.00;95320.13;5071481;28;20474;-52
2022/12/09 10:57:23;;;;;;;3.43;1.77;;;;;;;12.70;100.00;95379.00;5071948;28;20432;-52
2022/12/09 11:00:00;;;;;;;86.03;2.70;;;;;;;12.44;100.00;95391.75;5072020;28;20509;-51
2022/12/09 11:02:31;;;;;;;1.67;1.57;;;;;;;12.22;100.00;95387.94;5071926;28;20436;-51
2022/12/09 11:05:21;;;;;;;1.60;0.90;;;;;;;12.10;100.00;95380.31;5071577;28;20799;-52
2022/12/09 11:07:51;;;;;;;0.73;0.73;;;;;;;11.90;100.00;95377.78;5071420;28;20971;-54
2022/12/09 11:10:22;;;;;;;1.33;1.20;;;;;;;11.89;100.00;95386.84;5071568;28;20426;-55
2022/12/09 11:12:54;;;;;;;0.60;0.53;;;;;;;11.84;100.00;95390.31;5071414;28;20430;-53
2022/12/09 11:15:31;;;;;;;0.60;0.60;;;;;;;12.23;100.00;95384.22;5071265;28;20460;-54
2022/12/09 11:18:04;;;;;;;7.17;0.50;;;;;;;12.13;100.00;95384.28;5071757;28;20859;-54
2022/12/09 11:20:34;;;;;;;0.40;0.37;;;;;;;12.14;100.00;95378.72;5071529;28;20510;-53
2022/12/09 11:23:06;;;;;;;1.20;1.10;;;;;;;12.46;100.00;95370.19;5071648;28;20566;-53
2022/12/09 11:25:36;;;;;;;0.30;0.20;;;;;;;12.59;100.00;95367.69;5071358;28;20942;-54
2022/12/09 11:28:21;;;;;;;7.50;1.07;;;;;;;12.14;100.00;95364.63;5071595;28;20435;-54
2022/12/09 11:30:54;;;;;;;1.03;0.93;;;;;;;12.07;100.00;95352.44;5071230;28;20995;-54
2022/12/09 11:33:50;;;;;;;0.60;0.50;;;;;;;12.29;100.00;95340.59;5072304;28;20453;-54
2022/12/09 11:36:22;;;;;;;0.63;0.63;;;;;;;12.24;100.00;95351.25;5075578;28;20465;-54
2022/12/09 11:38:54;;;;;;;1.30;1.20;;;;;;;12.05;100.00;95340.50;5075214;28;20427;-54
2022/12/09 11:44:20;;;;;;;1.03;0.90;;;;;;;12.35;100.00;95336.81;5075443;28;20426;-54
2022/12/09 11:46:59;;;;;;;1.20;1.20;;;;;;;12.16;100.00;95344.69;5075486;28;20521;-54
2022/12/09 11:49:29;;;;;;;0.87;0.87;;;;;;;12.15;100.00;95348.41;5075176;28;20466;-55
2022/12/09 11:52:07;;;;;;;1.33;1.23;;;;;;;11.93;100.00;95348.03;5075122;28;20481;-53